sensor_id;sensor_type;location;lat;lon;timestamp;P1;durP1;ratioP1;P2;durP2;ratioP2
23302;SDS011;11820;48.738;9.092;2024-01-30T00:00:50;3.73;;;3.13;;
23302;SDS011;11820;48.738;9.092;2024-01-30T00:03:15;5.27;;;3.47;;
23302;SDS011;11820;48.738;9.092;2024-01-30T00:05:40;6.10;;;3.67;;
23302;SDS011;11820;48.738;9.092;2024-01-30T00:08:05;3.90;;;3.33;;
23302;SDS011;11820;48.738;9.092;2024-01-30T00:10:31;6.40;;;3.10;;
23302;SDS011;11820;48.738;9.092;2024-01-30T00:12:56;7.00;;;3.27;;
23302;SDS011;11820;48.738;9.092;2024-01-30T00:15:21;4.47;;;3.27;;
23302;SDS011;11820;48.738;9.092;2024-01-30T00:17:47;6.93;;;4.83;;
23302;SDS011;11820;48.738;9.092;2024-01-30T00:20:12;5.20;;;4.30;;
23302;SDS011;11820;48.738;9.092;2024-01-30T00:22:37;6.13;;;3.87;;
23302;SDS011;11820;48.738;9.092;2024-01-30T00:25:03;6.87;;;4.47;;
23302;SDS011;11820;48.738;9.092;2024-01-30T00:27:28;5.43;;;4.20;;
23302;SDS011;11820;48.738;9.092;2024-01-30T00:29:53;7.03;;;3.97;;
23302;SDS011;11820;48.738;9.092;2024-01-30T00:32:18;6.50;;;4.97;;
23302;SDS011;11820;48.738;9.092;2024-01-30T00:34:44;5.77;;;4.00;;
23302;SDS011;11820;48.738;9.092;2024-01-30T00:37:09;5.77;;;4.23;;
23302;SDS011;11820;48.738;9.092;2024-01-30T00:39:34;5.77;;;4.33;;
23302;SDS011;11820;48.738;9.092;2024-01-30T00:42:00;5.23;;;4.23;;
23302;SDS011;11820;48.738;9.092;2024-01-30T00:44:25;5.73;;;4.33;;
23302;SDS011;11820;48.738;9.092;2024-01-30T00:46:50;5.77;;;4.40;;
23302;SDS011;11820;48.738;9.092;2024-01-30T00:49:15;4.97;;;4.30;;
23302;SDS011;11820;48.738;9.092;2024-01-30T00:51:41;6.77;;;3.87;;
23302;SDS011;11820;48.738;9.092;2024-01-30T00:54:06;4.77;;;4.20;;
23302;SDS011;11820;48.738;9.092;2024-01-30T00:56:31;8.03;;;4.67;;
23302;SDS011;11820;48.738;9.092;2024-01-30T00:58:56;5.13;;;4.30;;
23302;SDS011;11820;48.738;9.092;2024-01-30T01:01:21;6.17;;;4.93;;
23302;SDS011;11820;48.738;9.092;2024-01-30T01:03:47;5.43;;;4.13;;
23302;SDS011;11820;48.738;9.092;2024-01-30T01:06:13;5.27;;;3.80;;
23302;SDS011;11820;48.738;9.092;2024-01-30T01:08:38;5.07;;;4.23;;
23302;SDS011;11820;48.738;9.092;2024-01-30T01:11:03;4.80;;;4.30;;
23302;SDS011;11820;48.738;9.092;2024-01-30T01:13:28;4.80;;;4.30;;
23302;SDS011;11820;48.738;9.092;2024-01-30T01:15:54;5.60;;;4.47;;
23302;SDS011;11820;48.738;9.092;2024-01-30T01:18:19;5.03;;;4.20;;
23302;SDS011;11820;48.738;9.092;2024-01-30T01:20:45;7.67;;;4.37;;
23302;SDS011;11820;48.738;9.092;2024-01-30T01:23:10;6.00;;;4.47;;
23302;SDS011;11820;48.738;9.092;2024-01-30T01:25:35;5.20;;;4.27;;
23302;SDS011;11820;48.738;9.092;2024-01-30T01:28:00;4.63;;;4.03;;
23302;SDS011;11820;48.738;9.092;2024-01-30T01:30:26;8.30;;;4.60;;
23302;SDS011;11820;48.738;9.092;2024-01-30T01:32:51;5.33;;;4.30;;
23302;SDS011;11820;48.738;9.092;2024-01-30T01:35:23;5.67;;;4.57;;
23302;SDS011;11820;48.738;9.092;2024-01-30T01:37:51;5.07;;;3.60;;
23302;SDS011;11820;48.738;9.092;2024-01-30T01:40:23;5.83;;;4.47;;
23302;SDS011;11820;48.738;9.092;2024-01-30T01:42:49;4.80;;;4.30;;
23302;SDS011;11820;48.738;9.092;2024-01-30T01:45:14;5.40;;;4.00;;
23302;SDS011;11820;48.738;9.092;2024-01-30T01:47:40;6.27;;;4.50;;
23302;SDS011;11820;48.738;9.092;2024-01-30T01:50:05;4.90;;;4.40;;
23302;SDS011;11820;48.738;9.092;2024-01-30T01:52:31;5.27;;;4.10;;
23302;SDS011;11820;48.738;9.092;2024-01-30T01:54:56;6.10;;;4.17;;
23302;SDS011;11820;48.738;9.092;2024-01-30T01:57:21;6.70;;;4.00;;
23302;SDS011;11820;48.738;9.092;2024-01-30T01:59:46;6.33;;;4.07;;
23302;SDS011;11820;48.738;9.092;2024-01-30T02:02:12;5.43;;;3.87;;
23302;SDS011;11820;48.738;9.092;2024-01-30T02:04:38;5.60;;;3.97;;
23302;SDS011;11820;48.738;9.092;2024-01-30T02:07:03;6.60;;;3.83;;
23302;SDS011;11820;48.738;9.092;2024-01-30T02:09:29;5.43;;;4.17;;
23302;SDS011;11820;48.738;9.092;2024-01-30T02:11:54;4.13;;;3.63;;
23302;SDS011;11820;48.738;9.092;2024-01-30T02:14:20;6.73;;;4.03;;
23302;SDS011;11820;48.738;9.092;2024-01-30T02:16:45;5.43;;;3.90;;
23302;SDS011;11820;48.738;9.092;2024-01-30T02:19:10;4.87;;;3.87;;
23302;SDS011;11820;48.738;9.092;2024-01-30T02:21:36;4.70;;;3.97;;
23302;SDS011;11820;48.738;9.092;2024-01-30T02:24:01;5.60;;;4.00;;
23302;SDS011;11820;48.738;9.092;2024-01-30T02:26:27;4.10;;;3.63;;
23302;SDS011;11820;48.738;9.092;2024-01-30T02:28:52;4.57;;;3.77;;
23302;SDS011;11820;48.738;9.092;2024-01-30T02:31:18;4.60;;;3.87;;
23302;SDS011;11820;48.738;9.092;2024-01-30T02:33:43;5.43;;;3.90;;
23302;SDS011;11820;48.738;9.092;2024-01-30T02:36:08;4.30;;;3.60;;
23302;SDS011;11820;48.738;9.092;2024-01-30T02:38:33;6.10;;;4.00;;
23302;SDS011;11820;48.738;9.092;2024-01-30T02:40:58;4.93;;;3.87;;
23302;SDS011;11820;48.738;9.092;2024-01-30T02:43:24;5.47;;;3.93;;
23302;SDS011;11820;48.738;9.092;2024-01-30T02:45:49;8.63;;;3.93;;
23302;SDS011;11820;48.738;9.092;2024-01-30T02:48:14;5.87;;;4.33;;
23302;SDS011;11820;48.738;9.092;2024-01-30T02:50:39;4.23;;;3.70;;
23302;SDS011;11820;48.738;9.092;2024-01-30T02:53:04;4.43;;;3.47;;
23302;SDS011;11820;48.738;9.092;2024-01-30T02:55:30;4.90;;;3.90;;
23302;SDS011;11820;48.738;9.092;2024-01-30T02:57:55;5.03;;;3.97;;
23302;SDS011;11820;48.738;9.092;2024-01-30T03:00:20;5.97;;;3.63;;
23302;SDS011;11820;48.738;9.092;2024-01-30T03:02:45;4.53;;;4.03;;
23302;SDS011;11820;48.738;9.092;2024-01-30T03:05:10;6.77;;;3.87;;
23302;SDS011;11820;48.738;9.092;2024-01-30T03:07:36;4.13;;;3.50;;
23302;SDS011;11820;48.738;9.092;2024-01-30T03:10:01;4.17;;;3.53;;
23302;SDS011;11820;48.738;9.092;2024-01-30T03:12:26;7.00;;;3.60;;
23302;SDS011;11820;48.738;9.092;2024-01-30T03:14:51;5.37;;;4.10;;
23302;SDS011;11820;48.738;9.092;2024-01-30T03:17:16;5.13;;;4.00;;
23302;SDS011;11820;48.738;9.092;2024-01-30T03:19:42;3.93;;;3.53;;
23302;SDS011;11820;48.738;9.092;2024-01-30T03:22:07;4.23;;;3.83;;
23302;SDS011;11820;48.738;9.092;2024-01-30T03:24:32;6.60;;;3.70;;
23302;SDS011;11820;48.738;9.092;2024-01-30T03:26:57;4.47;;;3.27;;
23302;SDS011;11820;48.738;9.092;2024-01-30T03:29:22;4.00;;;3.47;;
23302;SDS011;11820;48.738;9.092;2024-01-30T03:31:48;4.73;;;3.90;;
23302;SDS011;11820;48.738;9.092;2024-01-30T03:34:13;4.13;;;3.60;;
23302;SDS011;11820;48.738;9.092;2024-01-30T03:36:38;4.90;;;3.63;;
23302;SDS011;11820;48.738;9.092;2024-01-30T03:39:04;3.50;;;3.20;;
23302;SDS011;11820;48.738;9.092;2024-01-30T03:41:29;5.20;;;4.07;;
23302;SDS011;11820;48.738;9.092;2024-01-30T03:43:54;4.00;;;3.60;;
23302;SDS011;11820;48.738;9.092;2024-01-30T03:46:20;5.37;;;3.73;;
23302;SDS011;11820;48.738;9.092;2024-01-30T03:48:45;3.83;;;3.37;;
23302;SDS011;11820;48.738;9.092;2024-01-30T03:51:11;3.53;;;3.23;;
23302;SDS011;11820;48.738;9.092;2024-01-30T03:53:41;5.47;;;3.67;;
23302;SDS011;11820;48.738;9.092;2024-01-30T03:56:07;4.17;;;3.47;;
23302;SDS011;11820;48.738;9.092;2024-01-30T03:58:32;5.10;;;3.47;;
23302;SDS011;11820;48.738;9.092;2024-01-30T04:00:57;5.60;;;3.40;;
23302;SDS011;11820;48.738;9.092;2024-01-30T04:03:22;3.97;;;3.40;;
23302;SDS011;11820;48.738;9.092;2024-01-30T04:05:47;4.57;;;3.67;;
23302;SDS011;11820;48.738;9.092;2024-01-30T04:08:13;4.37;;;3.77;;
23302;SDS011;11820;48.738;9.092;2024-01-30T04:10:38;4.20;;;3.53;;
23302;SDS011;11820;48.738;9.092;2024-01-30T04:13:03;4.20;;;3.40;;
23302;SDS011;11820;48.738;9.092;2024-01-30T04:15:28;4.23;;;3.30;;
23302;SDS011;11820;48.738;9.092;2024-01-30T04:17:56;3.20;;;2.90;;
23302;SDS011;11820;48.738;9.092;2024-01-30T04:20:22;4.30;;;3.37;;
23302;SDS011;11820;48.738;9.092;2024-01-30T04:22:47;5.40;;;4.10;;
23302;SDS011;11820;48.738;9.092;2024-01-30T04:25:15;5.80;;;3.80;;
23302;SDS011;11820;48.738;9.092;2024-01-30T04:27:40;7.90;;;4.23;;
23302;SDS011;11820;48.738;9.092;2024-01-30T04:30:06;5.27;;;4.13;;
23302;SDS011;11820;48.738;9.092;2024-01-30T04:32:31;5.67;;;4.90;;
23302;SDS011;11820;48.738;9.092;2024-01-30T04:34:57;6.07;;;4.63;;
23302;SDS011;11820;48.738;9.092;2024-01-30T04:37:22;5.57;;;4.73;;
23302;SDS011;11820;48.738;9.092;2024-01-30T04:39:47;6.53;;;5.50;;
23302;SDS011;11820;48.738;9.092;2024-01-30T04:42:12;6.33;;;4.93;;
23302;SDS011;11820;48.738;9.092;2024-01-30T04:44:37;6.30;;;5.10;;
23302;SDS011;11820;48.738;9.092;2024-01-30T04:47:03;6.17;;;5.20;;
23302;SDS011;11820;48.738;9.092;2024-01-30T04:49:30;6.70;;;5.27;;
23302;SDS011;11820;48.738;9.092;2024-01-30T04:51:55;6.00;;;4.67;;
23302;SDS011;11820;48.738;9.092;2024-01-30T04:54:21;6.07;;;4.73;;
23302;SDS011;11820;48.738;9.092;2024-01-30T04:56:46;7.77;;;4.97;;
23302;SDS011;11820;48.738;9.092;2024-01-30T04:59:11;5.97;;;4.83;;
23302;SDS011;11820;48.738;9.092;2024-01-30T05:01:36;7.13;;;5.40;;
23302;SDS011;11820;48.738;9.092;2024-01-30T05:04:02;8.57;;;5.90;;
23302;SDS011;11820;48.738;9.092;2024-01-30T05:06:28;7.87;;;5.00;;
23302;SDS011;11820;48.738;9.092;2024-01-30T05:08:53;7.90;;;6.37;;
23302;SDS011;11820;48.738;9.092;2024-01-30T05:11:18;8.97;;;5.27;;
23302;SDS011;11820;48.738;9.092;2024-01-30T05:13:44;8.70;;;5.37;;
23302;SDS011;11820;48.738;9.092;2024-01-30T05:16:09;6.53;;;4.97;;
23302;SDS011;11820;48.738;9.092;2024-01-30T05:18:34;6.43;;;4.83;;
23302;SDS011;11820;48.738;9.092;2024-01-30T05:20:59;5.53;;;4.80;;
23302;SDS011;11820;48.738;9.092;2024-01-30T05:23:25;6.50;;;5.07;;
23302;SDS011;11820;48.738;9.092;2024-01-30T05:25:50;6.10;;;5.10;;
23302;SDS011;11820;48.738;9.092;2024-01-30T05:28:15;7.80;;;5.43;;
23302;SDS011;11820;48.738;9.092;2024-01-30T05:30:40;6.87;;;5.50;;
23302;SDS011;11820;48.738;9.092;2024-01-30T05:33:05;7.80;;;5.17;;
23302;SDS011;11820;48.738;9.092;2024-01-30T05:35:31;7.07;;;5.60;;
23302;SDS011;11820;48.738;9.092;2024-01-30T05:37:56;6.87;;;5.47;;
23302;SDS011;11820;48.738;9.092;2024-01-30T05:40:21;5.20;;;4.60;;
23302;SDS011;11820;48.738;9.092;2024-01-30T05:42:46;6.30;;;5.17;;
23302;SDS011;11820;48.738;9.092;2024-01-30T05:45:11;6.60;;;4.80;;
23302;SDS011;11820;48.738;9.092;2024-01-30T05:47:37;8.30;;;5.00;;
23302;SDS011;11820;48.738;9.092;2024-01-30T05:50:02;7.03;;;5.23;;
23302;SDS011;11820;48.738;9.092;2024-01-30T05:52:28;6.20;;;5.27;;
23302;SDS011;11820;48.738;9.092;2024-01-30T05:54:53;6.50;;;4.90;;
23302;SDS011;11820;48.738;9.092;2024-01-30T05:57:18;7.23;;;5.83;;
23302;SDS011;11820;48.738;9.092;2024-01-30T05:59:44;7.97;;;5.60;;
23302;SDS011;11820;48.738;9.092;2024-01-30T06:02:12;7.90;;;4.80;;
23302;SDS011;11820;48.738;9.092;2024-01-30T06:04:37;7.77;;;4.90;;
23302;SDS011;11820;48.738;9.092;2024-01-30T06:07:03;5.47;;;4.57;;
23302;SDS011;11820;48.738;9.092;2024-01-30T06:09:29;6.00;;;4.63;;
23302;SDS011;11820;48.738;9.092;2024-01-30T06:11:54;6.57;;;4.40;;
23302;SDS011;11820;48.738;9.092;2024-01-30T06:14:20;5.27;;;4.50;;
23302;SDS011;11820;48.738;9.092;2024-01-30T06:16:45;8.00;;;4.93;;
23302;SDS011;11820;48.738;9.092;2024-01-30T06:19:10;6.17;;;5.27;;
23302;SDS011;11820;48.738;9.092;2024-01-30T06:21:35;6.40;;;5.10;;
23302;SDS011;11820;48.738;9.092;2024-01-30T06:24:02;5.77;;;4.77;;
23302;SDS011;11820;48.738;9.092;2024-01-30T06:26:27;7.97;;;5.13;;
23302;SDS011;11820;48.738;9.092;2024-01-30T06:28:52;8.10;;;5.17;;
23302;SDS011;11820;48.738;9.092;2024-01-30T06:31:18;6.13;;;4.67;;
23302;SDS011;11820;48.738;9.092;2024-01-30T06:33:46;6.83;;;5.30;;
23302;SDS011;11820;48.738;9.092;2024-01-30T06:36:11;7.03;;;5.57;;
23302;SDS011;11820;48.738;9.092;2024-01-30T06:38:36;7.93;;;5.50;;
23302;SDS011;11820;48.738;9.092;2024-01-30T06:41:01;8.30;;;5.17;;
23302;SDS011;11820;48.738;9.092;2024-01-30T06:43:27;6.80;;;4.90;;
23302;SDS011;11820;48.738;9.092;2024-01-30T06:45:52;6.10;;;5.50;;
23302;SDS011;11820;48.738;9.092;2024-01-30T06:48:17;10.10;;;5.27;;
23302;SDS011;11820;48.738;9.092;2024-01-30T06:50:42;9.93;;;5.13;;
23302;SDS011;11820;48.738;9.092;2024-01-30T06:53:08;7.57;;;5.13;;
23302;SDS011;11820;48.738;9.092;2024-01-30T06:55:33;5.53;;;4.70;;
23302;SDS011;11820;48.738;9.092;2024-01-30T06:57:58;6.43;;;5.20;;
23302;SDS011;11820;48.738;9.092;2024-01-30T07:00:24;8.37;;;4.83;;
23302;SDS011;11820;48.738;9.092;2024-01-30T07:02:49;6.40;;;4.67;;
23302;SDS011;11820;48.738;9.092;2024-01-30T07:05:14;6.33;;;4.90;;
23302;SDS011;11820;48.738;9.092;2024-01-30T07:07:40;6.17;;;4.57;;
23302;SDS011;11820;48.738;9.092;2024-01-30T07:10:05;5.43;;;4.13;;
23302;SDS011;11820;48.738;9.092;2024-01-30T07:12:31;4.20;;;3.73;;
23302;SDS011;11820;48.738;9.092;2024-01-30T07:14:56;7.80;;;4.20;;
23302;SDS011;11820;48.738;9.092;2024-01-30T07:17:24;4.63;;;3.53;;
23302;SDS011;11820;48.738;9.092;2024-01-30T07:19:49;4.97;;;3.57;;
23302;SDS011;11820;48.738;9.092;2024-01-30T07:22:15;5.40;;;4.17;;
23302;SDS011;11820;48.738;9.092;2024-01-30T07:24:43;7.67;;;4.40;;
23302;SDS011;11820;48.738;9.092;2024-01-30T07:27:14;3.30;;;2.73;;
23302;SDS011;11820;48.738;9.092;2024-01-30T07:29:39;3.70;;;2.77;;
23302;SDS011;11820;48.738;9.092;2024-01-30T07:32:05;3.50;;;2.40;;
23302;SDS011;11820;48.738;9.092;2024-01-30T07:34:30;3.10;;;2.60;;
23302;SDS011;11820;48.738;9.092;2024-01-30T07:36:56;5.27;;;4.07;;
23302;SDS011;11820;48.738;9.092;2024-01-30T07:39:21;4.87;;;4.00;;
23302;SDS011;11820;48.738;9.092;2024-01-30T07:41:46;7.77;;;5.90;;
23302;SDS011;11820;48.738;9.092;2024-01-30T07:44:12;7.47;;;5.03;;
23302;SDS011;11820;48.738;9.092;2024-01-30T07:46:37;11.77;;;4.87;;
23302;SDS011;11820;48.738;9.092;2024-01-30T07:49:02;5.63;;;4.27;;
23302;SDS011;11820;48.738;9.092;2024-01-30T07:51:28;7.73;;;4.57;;
23302;SDS011;11820;48.738;9.092;2024-01-30T07:53:54;5.13;;;3.83;;
23302;SDS011;11820;48.738;9.092;2024-01-30T07:56:20;6.67;;;4.10;;
23302;SDS011;11820;48.738;9.092;2024-01-30T07:58:45;6.93;;;3.37;;
23302;SDS011;11820;48.738;9.092;2024-01-30T08:01:10;4.33;;;3.63;;
23302;SDS011;11820;48.738;9.092;2024-01-30T08:03:36;5.57;;;4.00;;
23302;SDS011;11820;48.738;9.092;2024-01-30T08:06:02;5.53;;;4.10;;
23302;SDS011;11820;48.738;9.092;2024-01-30T08:08:28;5.83;;;4.33;;
23302;SDS011;11820;48.738;9.092;2024-01-30T08:10:53;7.13;;;3.63;;
23302;SDS011;11820;48.738;9.092;2024-01-30T08:13:18;5.13;;;3.63;;
23302;SDS011;11820;48.738;9.092;2024-01-30T08:15:44;7.97;;;3.57;;
23302;SDS011;11820;48.738;9.092;2024-01-30T08:18:09;4.30;;;3.50;;
23302;SDS011;11820;48.738;9.092;2024-01-30T08:20:34;5.33;;;3.77;;
23302;SDS011;11820;48.738;9.092;2024-01-30T08:23:00;5.87;;;3.80;;
23302;SDS011;11820;48.738;9.092;2024-01-30T08:25:25;4.37;;;3.13;;
23302;SDS011;11820;48.738;9.092;2024-01-30T08:27:51;3.00;;;2.43;;
23302;SDS011;11820;48.738;9.092;2024-01-30T08:30:16;3.87;;;2.70;;
23302;SDS011;11820;48.738;9.092;2024-01-30T08:32:42;3.77;;;2.80;;
23302;SDS011;11820;48.738;9.092;2024-01-30T08:35:07;3.73;;;2.43;;
23302;SDS011;11820;48.738;9.092;2024-01-30T08:37:33;2.87;;;2.53;;
23302;SDS011;11820;48.738;9.092;2024-01-30T08:39:58;3.63;;;2.47;;
23302;SDS011;11820;48.738;9.092;2024-01-30T08:42:24;3.10;;;2.80;;
23302;SDS011;11820;48.738;9.092;2024-01-30T08:44:50;9.07;;;3.73;;
23302;SDS011;11820;48.738;9.092;2024-01-30T08:47:17;4.70;;;3.50;;
23302;SDS011;11820;48.738;9.092;2024-01-30T08:49:43;3.90;;;3.00;;
23302;SDS011;11820;48.738;9.092;2024-01-30T08:52:09;5.97;;;3.10;;
23302;SDS011;11820;48.738;9.092;2024-01-30T08:54:35;3.30;;;2.67;;
23302;SDS011;11820;48.738;9.092;2024-01-30T08:57:01;3.97;;;2.77;;
23302;SDS011;11820;48.738;9.092;2024-01-30T08:59:26;3.90;;;2.83;;
23302;SDS011;11820;48.738;9.092;2024-01-30T09:01:51;2.53;;;2.33;;
23302;SDS011;11820;48.738;9.092;2024-01-30T09:04:20;2.70;;;2.33;;
23302;SDS011;11820;48.738;9.092;2024-01-30T09:06:45;4.10;;;2.77;;
23302;SDS011;11820;48.738;9.092;2024-01-30T09:09:11;4.30;;;2.80;;
23302;SDS011;11820;48.738;9.092;2024-01-30T09:11:36;4.60;;;2.60;;
23302;SDS011;11820;48.738;9.092;2024-01-30T09:14:01;4.67;;;3.20;;
23302;SDS011;11820;48.738;9.092;2024-01-30T09:16:27;4.83;;;2.97;;
23302;SDS011;11820;48.738;9.092;2024-01-30T09:18:52;3.80;;;2.70;;
23302;SDS011;11820;48.738;9.092;2024-01-30T09:21:17;2.83;;;2.50;;
23302;SDS011;11820;48.738;9.092;2024-01-30T09:23:43;4.63;;;3.07;;
23302;SDS011;11820;48.738;9.092;2024-01-30T09:26:08;5.30;;;2.40;;
23302;SDS011;11820;48.738;9.092;2024-01-30T09:28:34;5.20;;;2.80;;
23302;SDS011;11820;48.738;9.092;2024-01-30T09:30:59;3.57;;;2.67;;
23302;SDS011;11820;48.738;9.092;2024-01-30T09:33:25;3.50;;;2.73;;
23302;SDS011;11820;48.738;9.092;2024-01-30T09:35:50;4.13;;;3.00;;
23302;SDS011;11820;48.738;9.092;2024-01-30T09:38:16;5.00;;;2.43;;
23302;SDS011;11820;48.738;9.092;2024-01-30T09:40:41;3.17;;;2.80;;
23302;SDS011;11820;48.738;9.092;2024-01-30T09:43:07;3.03;;;2.43;;
23302;SDS011;11820;48.738;9.092;2024-01-30T09:45:32;3.20;;;2.90;;
23302;SDS011;11820;48.738;9.092;2024-01-30T09:47:59;4.33;;;2.63;;
23302;SDS011;11820;48.738;9.092;2024-01-30T09:50:25;4.63;;;2.43;;
23302;SDS011;11820;48.738;9.092;2024-01-30T09:52:51;3.33;;;2.23;;
23302;SDS011;11820;48.738;9.092;2024-01-30T09:55:20;3.90;;;2.70;;
23302;SDS011;11820;48.738;9.092;2024-01-30T09:57:45;3.50;;;2.57;;
23302;SDS011;11820;48.738;9.092;2024-01-30T10:00:11;3.47;;;2.33;;
23302;SDS011;11820;48.738;9.092;2024-01-30T10:02:38;2.80;;;2.23;;
23302;SDS011;11820;48.738;9.092;2024-01-30T10:05:04;4.60;;;2.60;;
23302;SDS011;11820;48.738;9.092;2024-01-30T10:07:30;3.83;;;2.30;;
23302;SDS011;11820;48.738;9.092;2024-01-30T10:09:56;2.40;;;2.20;;
23302;SDS011;11820;48.738;9.092;2024-01-30T10:12:21;3.33;;;2.57;;
23302;SDS011;11820;48.738;9.092;2024-01-30T10:14:47;4.40;;;2.53;;
23302;SDS011;11820;48.738;9.092;2024-01-30T10:17:13;3.93;;;2.40;;
23302;SDS011;11820;48.738;9.092;2024-01-30T10:19:39;2.93;;;2.60;;
23302;SDS011;11820;48.738;9.092;2024-01-30T10:22:05;2.70;;;2.27;;
23302;SDS011;11820;48.738;9.092;2024-01-30T10:24:31;5.17;;;2.87;;
23302;SDS011;11820;48.738;9.092;2024-01-30T10:26:56;4.83;;;2.93;;
23302;SDS011;11820;48.738;9.092;2024-01-30T10:29:22;4.27;;;2.37;;
23302;SDS011;11820;48.738;9.092;2024-01-30T10:34:42;4.70;;;2.57;;
23302;SDS011;11820;48.738;9.092;2024-01-30T10:37:08;6.27;;;2.50;;
23302;SDS011;11820;48.738;9.092;2024-01-30T10:39:40;5.20;;;2.70;;
23302;SDS011;11820;48.738;9.092;2024-01-30T10:42:10;4.47;;;2.53;;
23302;SDS011;11820;48.738;9.092;2024-01-30T10:44:39;3.50;;;2.60;;
23302;SDS011;11820;48.738;9.092;2024-01-30T10:47:08;3.93;;;2.77;;
23302;SDS011;11820;48.738;9.092;2024-01-30T10:49:40;4.03;;;2.87;;
23302;SDS011;11820;48.738;9.092;2024-01-30T10:52:08;2.70;;;2.10;;
23302;SDS011;11820;48.738;9.092;2024-01-30T10:54:34;3.50;;;2.60;;
23302;SDS011;11820;48.738;9.092;2024-01-30T10:57:00;3.63;;;2.47;;
23302;SDS011;11820;48.738;9.092;2024-01-30T10:59:28;3.27;;;2.43;;
23302;SDS011;11820;48.738;9.092;2024-01-30T11:01:56;4.57;;;2.60;;
23302;SDS011;11820;48.738;9.092;2024-01-30T11:04:22;3.33;;;2.40;;
23302;SDS011;11820;48.738;9.092;2024-01-30T11:06:49;6.43;;;2.43;;
23302;SDS011;11820;48.738;9.092;2024-01-30T11:09:16;6.00;;;2.50;;
23302;SDS011;11820;48.738;9.092;2024-01-30T11:11:55;4.43;;;2.40;;
23302;SDS011;11820;48.738;9.092;2024-01-30T11:14:26;5.03;;;2.60;;
23302;SDS011;11820;48.738;9.092;2024-01-30T11:17:00;6.10;;;2.40;;
23302;SDS011;11820;48.738;9.092;2024-01-30T11:19:26;3.70;;;2.60;;
23302;SDS011;11820;48.738;9.092;2024-01-30T11:21:52;3.87;;;2.57;;
23302;SDS011;11820;48.738;9.092;2024-01-30T11:24:19;3.07;;;2.70;;
23302;SDS011;11820;48.738;9.092;2024-01-30T11:26:47;3.97;;;2.53;;
23302;SDS011;11820;48.738;9.092;2024-01-30T11:29:13;3.37;;;2.40;;
23302;SDS011;11820;48.738;9.092;2024-01-30T11:31:38;3.17;;;2.40;;
23302;SDS011;11820;48.738;9.092;2024-01-30T11:34:04;3.87;;;2.57;;
23302;SDS011;11820;48.738;9.092;2024-01-30T11:36:30;3.33;;;2.27;;
23302;SDS011;11820;48.738;9.092;2024-01-30T11:38:58;2.70;;;2.30;;
23302;SDS011;11820;48.738;9.092;2024-01-30T11:41:27;3.50;;;2.73;;
23302;SDS011;11820;48.738;9.092;2024-01-30T11:43:53;5.07;;;2.70;;
23302;SDS011;11820;48.738;9.092;2024-01-30T11:46:19;4.47;;;2.20;;
23302;SDS011;11820;48.738;9.092;2024-01-30T11:48:44;5.87;;;2.00;;
23302;SDS011;11820;48.738;9.092;2024-01-30T11:51:09;3.70;;;2.50;;
23302;SDS011;11820;48.738;9.092;2024-01-30T11:53:41;4.63;;;2.80;;
23302;SDS011;11820;48.738;9.092;2024-01-30T11:56:06;3.10;;;2.30;;
23302;SDS011;11820;48.738;9.092;2024-01-30T11:58:33;3.13;;;2.33;;
23302;SDS011;11820;48.738;9.092;2024-01-30T12:00:58;3.20;;;2.30;;
23302;SDS011;11820;48.738;9.092;2024-01-30T12:03:24;4.43;;;2.60;;
23302;SDS011;11820;48.738;9.092;2024-01-30T12:05:56;4.33;;;2.80;;
23302;SDS011;11820;48.738;9.092;2024-01-30T12:08:23;3.87;;;2.30;;
23302;SDS011;11820;48.738;9.092;2024-01-30T12:10:55;4.83;;;2.77;;
23302;SDS011;11820;48.738;9.092;2024-01-30T12:13:24;7.07;;;2.77;;
23302;SDS011;11820;48.738;9.092;2024-01-30T12:15:50;8.13;;;2.33;;
23302;SDS011;11820;48.738;9.092;2024-01-30T12:18:18;2.77;;;2.20;;
23302;SDS011;11820;48.738;9.092;2024-01-30T12:20:44;4.17;;;2.17;;
23302;SDS011;11820;48.738;9.092;2024-01-30T12:23:09;2.67;;;2.10;;
23302;SDS011;11820;48.738;9.092;2024-01-30T12:25:37;3.53;;;2.17;;
23302;SDS011;11820;48.738;9.092;2024-01-30T12:28:03;3.23;;;2.50;;
23302;SDS011;11820;48.738;9.092;2024-01-30T12:30:29;2.97;;;2.40;;
23302;SDS011;11820;48.738;9.092;2024-01-30T12:32:54;2.53;;;2.33;;
23302;SDS011;11820;48.738;9.092;2024-01-30T12:35:20;3.80;;;2.40;;
23302;SDS011;11820;48.738;9.092;2024-01-30T12:37:47;2.70;;;2.30;;
23302;SDS011;11820;48.738;9.092;2024-01-30T12:40:15;2.50;;;2.20;;
23302;SDS011;11820;48.738;9.092;2024-01-30T12:42:42;6.73;;;2.53;;
23302;SDS011;11820;48.738;9.092;2024-01-30T12:45:08;2.80;;;2.37;;
23302;SDS011;11820;48.738;9.092;2024-01-30T12:47:34;3.20;;;2.10;;
23302;SDS011;11820;48.738;9.092;2024-01-30T12:49:59;2.60;;;2.00;;
23302;SDS011;11820;48.738;9.092;2024-01-30T12:52:24;4.17;;;2.20;;
23302;SDS011;11820;48.738;9.092;2024-01-30T12:54:50;3.10;;;1.90;;
23302;SDS011;11820;48.738;9.092;2024-01-30T12:57:16;2.83;;;2.33;;
23302;SDS011;11820;48.738;9.092;2024-01-30T12:59:42;3.77;;;2.13;;
23302;SDS011;11820;48.738;9.092;2024-01-30T13:02:08;3.13;;;2.20;;
23302;SDS011;11820;48.738;9.092;2024-01-30T13:04:34;3.87;;;2.20;;
23302;SDS011;11820;48.738;9.092;2024-01-30T13:06:59;2.60;;;1.80;;
23302;SDS011;11820;48.738;9.092;2024-01-30T13:09:29;6.10;;;2.33;;
23302;SDS011;11820;48.738;9.092;2024-01-30T13:11:55;4.13;;;2.40;;
23302;SDS011;11820;48.738;9.092;2024-01-30T13:14:20;5.73;;;2.10;;
23302;SDS011;11820;48.738;9.092;2024-01-30T13:16:45;2.63;;;2.23;;
23302;SDS011;11820;48.738;9.092;2024-01-30T13:19:11;2.57;;;2.00;;
23302;SDS011;11820;48.738;9.092;2024-01-30T13:21:36;4.50;;;2.13;;
23302;SDS011;11820;48.738;9.092;2024-01-30T13:24:01;3.33;;;2.13;;
23302;SDS011;11820;48.738;9.092;2024-01-30T13:26:27;3.53;;;1.97;;
23302;SDS011;11820;48.738;9.092;2024-01-30T13:28:53;3.07;;;1.70;;
23302;SDS011;11820;48.738;9.092;2024-01-30T13:31:18;4.33;;;1.90;;
23302;SDS011;11820;48.738;9.092;2024-01-30T13:33:44;3.93;;;2.30;;
23302;SDS011;11820;48.738;9.092;2024-01-30T13:36:10;8.10;;;2.43;;
23302;SDS011;11820;48.738;9.092;2024-01-30T13:38:36;3.70;;;2.30;;
23302;SDS011;11820;48.738;9.092;2024-01-30T13:41:02;3.37;;;2.00;;
23302;SDS011;11820;48.738;9.092;2024-01-30T13:43:27;3.20;;;2.07;;
23302;SDS011;11820;48.738;9.092;2024-01-30T13:45:53;3.57;;;2.00;;
23302;SDS011;11820;48.738;9.092;2024-01-30T13:48:19;2.57;;;2.10;;
23302;SDS011;11820;48.738;9.092;2024-01-30T13:50:44;3.30;;;2.00;;
23302;SDS011;11820;48.738;9.092;2024-01-30T13:53:09;2.87;;;2.10;;
23302;SDS011;11820;48.738;9.092;2024-01-30T13:55:35;3.37;;;2.10;;
23302;SDS011;11820;48.738;9.092;2024-01-30T13:58:00;2.53;;;2.20;;
23302;SDS011;11820;48.738;9.092;2024-01-30T14:00:29;4.97;;;2.37;;
23302;SDS011;11820;48.738;9.092;2024-01-30T14:02:54;2.97;;;2.20;;
23302;SDS011;11820;48.738;9.092;2024-01-30T14:05:20;5.93;;;2.30;;
23302;SDS011;11820;48.738;9.092;2024-01-30T14:07:46;3.47;;;2.60;;
23302;SDS011;11820;48.738;9.092;2024-01-30T14:10:12;3.47;;;2.10;;
23302;SDS011;11820;48.738;9.092;2024-01-30T14:12:37;2.97;;;2.47;;
23302;SDS011;11820;48.738;9.092;2024-01-30T14:15:03;3.57;;;2.17;;
23302;SDS011;11820;48.738;9.092;2024-01-30T14:17:28;4.17;;;2.20;;
23302;SDS011;11820;48.738;9.092;2024-01-30T14:19:54;4.13;;;2.40;;
23302;SDS011;11820;48.738;9.092;2024-01-30T14:22:19;5.27;;;2.50;;
23302;SDS011;11820;48.738;9.092;2024-01-30T14:24:44;4.43;;;2.00;;
23302;SDS011;11820;48.738;9.092;2024-01-30T14:27:10;2.50;;;1.93;;
23302;SDS011;11820;48.738;9.092;2024-01-30T14:29:35;6.13;;;2.50;;
23302;SDS011;11820;48.738;9.092;2024-01-30T14:32:01;3.13;;;2.03;;
23302;SDS011;11820;48.738;9.092;2024-01-30T14:34:27;3.17;;;2.27;;
23302;SDS011;11820;48.738;9.092;2024-01-30T14:36:52;2.27;;;2.00;;
23302;SDS011;11820;48.738;9.092;2024-01-30T14:39:18;2.43;;;2.00;;
23302;SDS011;11820;48.738;9.092;2024-01-30T14:41:43;3.13;;;2.47;;